createdAt,value
2018-12-04T00:00:25.049Z,22.15
2018-12-04T00:01:25.056Z,22.11
2018-12-04T00:02:25.011Z,22.20
2018-12-04T00:03:25.012Z,22.28
2018-12-04T00:04:25.093Z,22.17
2018-12-04T00:05:24.991Z,22.11
2018-12-04T00:06:24.974Z,22.10
2018-12-04T00:07:24.992Z,22.15
2018-12-04T00:08:24.951Z,22.10
2018-12-04T00:09:24.934Z,22.11
2018-12-04T00:10:24.944Z,22.13
2018-12-04T00:11:24.909Z,22.08
2018-12-04T00:12:24.970Z,22.11
2018-12-04T00:13:24.903Z,22.04
2018-12-04T00:14:24.876Z,22.08
2018-12-04T00:15:24.886Z,22.04
2018-12-04T00:16:24.860Z,22.07
2018-12-04T00:17:24.859Z,22.15
2018-12-04T00:18:24.890Z,22.11
2018-12-04T00:19:24.827Z,22.08
2018-12-04T00:20:24.883Z,22.11
2018-12-04T00:21:24.858Z,22.23
2018-12-04T00:22:24.850Z,22.13
2018-12-04T00:23:24.777Z,22.10
2018-12-04T00:24:24.765Z,22.20
2018-12-04T00:25:24.764Z,22.25
2018-12-04T00:26:24.745Z,22.23
2018-12-04T00:27:24.756Z,22.26
2018-12-04T00:28:24.763Z,22.30
2018-12-04T00:29:24.746Z,22.25
2018-12-04T00:30:24.707Z,22.29
2018-12-04T00:31:24.702Z,22.28
2018-12-04T00:32:24.697Z,22.29
2018-12-04T00:33:24.671Z,22.23
2018-12-04T00:34:24.664Z,22.25
2018-12-04T00:35:24.956Z,22.26
2018-12-04T00:36:24.674Z,22.15
2018-12-04T00:37:24.622Z,22.20
2018-12-04T00:38:24.613Z,22.13
2018-12-04T00:39:24.607Z,22.07
2018-12-04T00:40:24.617Z,22.13
2018-12-04T00:41:24.663Z,22.14
2018-12-04T00:42:24.566Z,22.13
2018-12-04T00:43:24.549Z,22.10
2018-12-04T00:44:24.541Z,22.10
2018-12-04T00:45:24.538Z,21.95
2018-12-04T00:46:24.528Z,22.08
2018-12-04T00:47:24.509Z,22.00
2018-12-04T00:48:24.501Z,22.00
2018-12-04T00:49:24.485Z,21.99
2018-12-04T00:50:24.473Z,22.06
2018-12-04T00:51:24.474Z,21.98
2018-12-04T00:52:24.512Z,21.98
2018-12-04T00:53:24.485Z,22.02
2018-12-04T00:54:24.427Z,22.00
2018-12-04T00:55:24.436Z,21.99
2018-12-04T00:56:24.467Z,22.06
2018-12-04T00:57:24.397Z,22.00
2018-12-04T00:58:24.407Z,21.96
2018-12-04T00:59:24.383Z,21.98
2018-12-04T01:00:24.396Z,21.95
2018-12-04T01:01:24.455Z,21.98
2018-12-04T01:02:24.348Z,22.00
2018-12-04T01:03:24.338Z,21.92
2018-12-04T01:04:24.362Z,22.02
2018-12-04T01:05:24.332Z,21.98
2018-12-04T01:06:24.349Z,22.00
2018-12-04T01:07:24.419Z,22.13
2018-12-04T01:08:24.285Z,22.10
2018-12-04T01:09:24.272Z,22.08
2018-12-04T01:10:24.306Z,22.11
2018-12-04T01:11:24.274Z,22.14
2018-12-04T01:12:24.242Z,22.11
2018-12-04T01:13:24.220Z,22.11
2018-12-04T01:14:24.290Z,22.14
2018-12-04T01:15:24.203Z,22.14
2018-12-04T01:16:24.203Z,22.06
2018-12-04T01:17:24.190Z,22.10
2018-12-04T01:18:24.168Z,22.14
2018-12-04T01:19:24.175Z,22.14
2018-12-04T01:20:24.138Z,22.14
2018-12-04T01:21:24.157Z,22.10
2018-12-04T01:22:24.126Z,22.14
2018-12-04T01:23:24.142Z,22.08
2018-12-04T01:24:24.092Z,22.13
2018-12-04T01:25:24.095Z,22.11
2018-12-04T01:26:24.080Z,22.07
2018-12-04T01:27:24.060Z,22.06
2018-12-04T01:28:24.057Z,22.02
2018-12-04T01:29:24.036Z,22.00
2018-12-04T01:30:24.032Z,22.00
2018-12-04T01:31:24.039Z,21.98
2018-12-04T01:32:24.010Z,21.96
2018-12-04T01:33:24.009Z,22.00
2018-12-04T01:34:24.036Z,21.82
2018-12-04T01:35:23.974Z,21.85
2018-12-04T01:36:24.006Z,21.83
2018-12-04T01:37:23.957Z,21.80
2018-12-04T01:38:23.941Z,21.79
2018-12-04T01:39:23.940Z,21.76
2018-12-04T01:40:23.925Z,21.73
2018-12-04T01:41:23.906Z,21.76
2018-12-04T01:42:23.900Z,21.83
2018-12-04T01:43:23.890Z,21.80
2018-12-04T01:44:23.906Z,21.88
2018-12-04T01:45:23.865Z,21.77
2018-12-04T01:46:23.856Z,21.85
2018-12-04T01:47:23.852Z,21.91
2018-12-04T01:48:23.842Z,21.80
2018-12-04T01:49:23.822Z,21.93
2018-12-04T01:50:23.818Z,21.98
2018-12-04T01:51:23.795Z,21.99
2018-12-04T01:52:23.799Z,21.93
2018-12-04T01:53:23.791Z,22.00
2018-12-04T01:54:23.759Z,22.02
2018-12-04T01:55:23.757Z,22.02
2018-12-04T01:56:23.768Z,21.98
2018-12-04T01:57:23.743Z,22.02
2018-12-04T01:58:23.719Z,22.00
2018-12-04T01:59:23.714Z,22.07
2018-12-04T02:00:23.711Z,22.04
2018-12-04T02:01:23.699Z,21.98
2018-12-04T02:02:23.719Z,21.96
2018-12-04T02:03:23.697Z,22.04
2018-12-04T02:04:23.765Z,21.99
2018-12-04T02:05:23.642Z,21.93
2018-12-04T02:06:23.640Z,22.00
2018-12-04T02:07:23.628Z,21.99
2018-12-04T02:08:23.611Z,22.02
2018-12-04T02:09:23.606Z,22.02
2018-12-04T02:10:23.731Z,22.02
2018-12-04T02:11:23.571Z,22.02
2018-12-04T02:12:23.580Z,22.02
2018-12-04T02:13:23.541Z,21.89
2018-12-04T02:14:23.533Z,21.88
2018-12-04T02:15:23.524Z,21.83
2018-12-04T02:16:23.510Z,21.80
2018-12-04T02:17:23.535Z,21.82
2018-12-04T02:18:23.503Z,21.79
2018-12-04T02:19:23.644Z,21.72
2018-12-04T02:20:23.469Z,21.72
2018-12-04T02:21:23.458Z,21.73
2018-12-04T02:22:23.440Z,21.89
2018-12-04T02:23:23.452Z,21.82
2018-12-04T02:24:23.430Z,21.83
2018-12-04T02:25:23.425Z,21.85
2018-12-04T02:26:23.406Z,21.89
2018-12-04T02:27:23.391Z,21.79
2018-12-04T02:28:23.391Z,21.80
2018-12-04T02:29:23.366Z,21.83
2018-12-04T02:30:23.402Z,21.85
2018-12-04T02:31:23.340Z,21.83
2018-12-04T02:32:23.332Z,21.83
2018-12-04T02:33:23.342Z,21.88
2018-12-04T02:34:23.424Z,21.77
2018-12-04T02:35:23.295Z,21.73
2018-12-04T02:36:23.324Z,21.75
2018-12-04T02:37:23.288Z,21.73
2018-12-04T02:38:23.295Z,21.75
2018-12-04T02:39:23.278Z,21.72
2018-12-04T02:40:23.248Z,21.76
2018-12-04T02:41:23.226Z,21.79
2018-12-04T02:42:23.265Z,21.83
2018-12-04T02:43:23.214Z,21.76
2018-12-04T02:44:23.206Z,21.85
2018-12-04T02:45:23.202Z,21.83
2018-12-04T02:46:23.199Z,21.85
2018-12-04T02:47:23.167Z,21.83
2018-12-04T02:48:23.247Z,21.88
2018-12-04T02:49:23.148Z,21.91
2018-12-04T02:50:23.143Z,21.85
2018-12-04T02:51:23.133Z,21.96
2018-12-04T02:52:23.129Z,21.92
2018-12-04T02:53:23.093Z,21.91
2018-12-04T02:54:23.093Z,21.91
2018-12-04T02:55:23.082Z,21.85
2018-12-04T02:56:23.063Z,21.83
2018-12-04T02:57:23.049Z,21.91
2018-12-04T02:58:23.054Z,21.91
2018-12-04T02:59:23.042Z,21.88
2018-12-04T03:00:23.021Z,21.89
2018-12-04T03:01:23.028Z,21.93
2018-12-04T03:02:22.998Z,21.80
2018-12-04T03:03:23.020Z,21.72
2018-12-04T03:04:23.060Z,21.88
2018-12-04T03:05:22.959Z,21.76
2018-12-04T03:06:22.958Z,21.73
2018-12-04T03:07:22.953Z,21.77
2018-12-04T03:08:22.926Z,21.75
2018-12-04T03:09:22.932Z,21.79
2018-12-04T03:10:22.923Z,21.79
2018-12-04T03:11:22.902Z,21.72
2018-12-04T03:12:22.921Z,21.79
2018-12-04T03:13:22.909Z,21.79
2018-12-04T03:14:22.890Z,21.75
2018-12-04T03:15:22.873Z,21.83
2018-12-04T03:16:22.878Z,21.88
2018-12-04T03:17:22.861Z,21.80
2018-12-04T03:18:22.814Z,21.85
2018-12-04T03:19:22.820Z,21.77
2018-12-04T03:20:22.805Z,21.88
2018-12-04T03:21:22.794Z,21.73
2018-12-04T03:22:22.770Z,21.76
2018-12-04T03:23:22.762Z,21.76
2018-12-04T03:24:22.786Z,21.77
2018-12-04T03:25:22.806Z,21.75
2018-12-04T03:26:22.740Z,21.72
2018-12-04T03:27:22.723Z,21.76
2018-12-04T03:28:22.707Z,21.80
2018-12-04T03:29:22.712Z,21.89
2018-12-04T03:30:22.709Z,21.92
2018-12-04T03:31:22.672Z,21.85
2018-12-04T03:32:22.665Z,21.93
2018-12-04T03:33:22.650Z,21.85
2018-12-04T03:34:22.664Z,21.88
2018-12-04T03:35:22.702Z,21.73
2018-12-04T03:36:22.620Z,21.83
2018-12-04T03:37:22.616Z,21.79
2018-12-04T03:38:22.593Z,21.92
2018-12-04T03:39:22.698Z,21.83
2018-12-04T03:40:22.569Z,21.88
2018-12-04T03:41:22.589Z,21.85
2018-12-04T03:42:22.556Z,21.85
2018-12-04T03:43:22.572Z,21.88
2018-12-04T03:44:22.559Z,21.89
2018-12-04T03:45:22.572Z,21.91
2018-12-04T03:46:22.545Z,21.83
2018-12-04T03:47:22.492Z,21.82
2018-12-04T03:48:22.479Z,21.79
2018-12-04T03:49:22.499Z,21.88
2018-12-04T03:50:22.506Z,21.91
2018-12-04T03:51:22.450Z,21.72
2018-12-04T03:52:22.442Z,21.79
2018-12-04T03:53:22.427Z,21.77
2018-12-04T03:54:22.419Z,21.83
2018-12-04T03:55:22.434Z,21.77
2018-12-04T03:56:22.388Z,21.75
2018-12-04T03:57:22.406Z,21.88
2018-12-04T03:58:22.387Z,21.82
2018-12-04T03:59:22.370Z,21.79
2018-12-04T04:00:22.360Z,21.75
2018-12-04T04:01:22.357Z,21.75
2018-12-04T04:02:22.327Z,21.73
2018-12-04T04:03:22.330Z,21.67
2018-12-04T04:04:22.416Z,21.75
2018-12-04T04:05:22.303Z,21.75
2018-12-04T04:06:22.333Z,21.66
2018-12-04T04:07:22.276Z,21.66
2018-12-04T04:08:22.330Z,21.70
2018-12-04T04:09:22.259Z,21.57
2018-12-04T04:10:22.255Z,21.66
2018-12-04T04:11:22.279Z,21.66
2018-12-04T04:12:22.209Z,21.64
2018-12-04T04:13:22.215Z,21.64
2018-12-04T04:14:22.195Z,21.73
2018-12-04T04:15:22.211Z,21.76
2018-12-04T04:16:22.166Z,21.75
2018-12-04T04:17:22.156Z,21.75
2018-12-04T04:18:22.157Z,21.85
2018-12-04T04:19:22.138Z,21.89
2018-12-04T04:20:22.154Z,21.88
2018-12-04T04:21:22.114Z,21.85
2018-12-04T04:22:22.096Z,21.85
2018-12-04T04:23:22.096Z,21.88
2018-12-04T04:24:22.103Z,21.85
2018-12-04T04:25:22.077Z,21.99
2018-12-04T04:26:22.051Z,21.88
2018-12-04T04:27:22.047Z,21.83
2018-12-04T04:28:22.038Z,21.92
2018-12-04T04:29:22.018Z,21.83
2018-12-04T04:30:22.020Z,21.83
2018-12-04T04:31:22.033Z,21.77
2018-12-04T04:32:21.993Z,21.89
2018-12-04T04:33:21.976Z,21.88
2018-12-04T04:34:22.046Z,21.77
2018-12-04T04:35:22.006Z,21.75
2018-12-04T04:36:21.945Z,21.77
2018-12-04T04:37:21.932Z,21.70
2018-12-04T04:38:21.923Z,21.62
2018-12-04T04:39:21.919Z,21.69
2018-12-04T04:40:21.929Z,21.66
2018-12-04T04:41:21.894Z,21.58
2018-12-04T04:42:21.896Z,21.57
2018-12-04T04:43:21.892Z,21.60
2018-12-04T04:44:21.861Z,21.61
2018-12-04T04:45:21.884Z,21.58
2018-12-04T04:46:21.844Z,21.70
2018-12-04T04:47:21.824Z,21.69
2018-12-04T04:48:21.834Z,21.67
2018-12-04T04:49:21.807Z,21.67
2018-12-04T04:50:21.817Z,21.73
2018-12-04T04:51:21.811Z,21.72
2018-12-04T04:52:21.773Z,21.67
2018-12-04T04:53:21.781Z,21.72
2018-12-04T04:54:21.782Z,21.75
2018-12-04T04:55:21.746Z,21.67
2018-12-04T04:56:21.764Z,21.75
2018-12-04T04:57:21.754Z,21.61
2018-12-04T04:58:21.698Z,21.69
2018-12-04T04:59:21.688Z,21.61
2018-12-04T05:00:21.703Z,21.64
2018-12-04T05:01:21.673Z,21.69
2018-12-04T05:02:21.664Z,21.66
2018-12-04T05:03:21.651Z,21.72
2018-12-04T05:04:21.686Z,21.73
2018-12-04T05:05:21.623Z,21.73
2018-12-04T05:06:21.617Z,21.79
2018-12-04T05:07:21.614Z,21.77
2018-12-04T05:08:21.588Z,21.91
2018-12-04T05:09:21.580Z,21.85
2018-12-04T05:10:21.576Z,21.91
2018-12-04T05:11:21.572Z,21.83
2018-12-04T05:12:21.543Z,21.88
2018-12-04T05:13:21.528Z,21.85
2018-12-04T05:14:21.515Z,21.88
2018-12-04T05:15:21.534Z,21.85
2018-12-04T05:16:21.533Z,21.80
2018-12-04T05:17:21.489Z,21.91
2018-12-04T05:18:21.474Z,21.82
2018-12-04T05:19:21.465Z,21.83
2018-12-04T05:20:21.458Z,21.83
2018-12-04T05:21:21.454Z,21.83
2018-12-04T05:22:21.429Z,21.85
2018-12-04T05:23:21.421Z,21.75
2018-12-04T05:24:21.416Z,21.72
2018-12-04T05:25:21.425Z,21.73
2018-12-04T05:26:21.409Z,21.73
2018-12-04T05:27:21.406Z,21.70
2018-12-04T05:28:21.376Z,21.62
2018-12-04T05:29:21.347Z,21.62
2018-12-04T05:30:21.392Z,21.58
2018-12-04T05:31:21.334Z,21.58
2018-12-04T05:32:21.328Z,21.60
2018-12-04T05:33:21.326Z,21.58
2018-12-04T05:34:21.387Z,21.61
2018-12-04T05:35:21.284Z,21.55
2018-12-04T05:36:21.298Z,21.58
2018-12-04T05:37:21.315Z,21.60
2018-12-04T05:38:21.254Z,21.57
2018-12-04T05:39:21.237Z,21.55
2018-12-04T05:40:21.226Z,21.55
2018-12-04T05:41:21.219Z,21.67
2018-12-04T05:42:21.209Z,21.66
2018-12-04T05:43:21.216Z,21.64
2018-12-04T05:44:21.191Z,21.64
2018-12-04T05:45:21.178Z,21.69
2018-12-04T05:46:21.203Z,21.67
2018-12-04T05:47:21.166Z,21.70
2018-12-04T05:48:21.133Z,21.73
2018-12-04T05:49:21.123Z,21.73
2018-12-04T05:50:21.137Z,21.76
2018-12-04T05:51:21.150Z,21.76
2018-12-04T05:52:21.122Z,21.76
2018-12-04T05:53:21.119Z,21.76
2018-12-04T05:54:21.070Z,21.88
2018-12-04T05:55:21.111Z,21.76
2018-12-04T05:56:21.046Z,21.77
2018-12-04T05:57:21.044Z,21.77
2018-12-04T05:58:21.025Z,21.77
2018-12-04T05:59:21.062Z,21.72
2018-12-04T06:00:21.002Z,21.75
2018-12-04T06:01:20.998Z,21.79
2018-12-04T06:02:21.002Z,21.80
2018-12-04T06:03:20.981Z,21.72
2018-12-04T06:04:21.123Z,21.76
2018-12-04T06:05:20.945Z,21.72
2018-12-04T06:06:20.963Z,21.75
2018-12-04T06:07:20.938Z,21.75
2018-12-04T06:08:20.964Z,21.77
2018-12-04T06:09:20.903Z,21.69
2018-12-04T06:10:20.939Z,21.70
2018-12-04T06:11:20.885Z,21.62
2018-12-04T06:12:20.906Z,21.62
2018-12-04T06:13:20.872Z,21.72
2018-12-04T06:14:20.856Z,21.69
2018-12-04T06:15:20.889Z,21.76
2018-12-04T06:16:20.853Z,21.73
2018-12-04T06:17:20.818Z,21.70
2018-12-04T06:18:20.819Z,21.72
2018-12-04T06:19:20.785Z,21.72
2018-12-04T06:20:20.789Z,21.69
2018-12-04T06:21:20.778Z,21.69
2018-12-04T06:22:20.897Z,21.70
2018-12-04T06:23:20.768Z,21.64
2018-12-04T06:24:20.763Z,21.67
2018-12-04T06:25:20.738Z,21.57
2018-12-04T06:26:20.717Z,21.57
2018-12-04T06:27:20.697Z,21.69
2018-12-04T06:28:20.788Z,21.64
2018-12-04T06:29:20.714Z,21.60
2018-12-04T06:30:20.747Z,21.58
2018-12-04T06:31:20.736Z,21.55
2018-12-04T06:32:20.640Z,21.60
2018-12-04T06:33:20.638Z,21.57
2018-12-04T06:34:20.665Z,21.62
2018-12-04T06:35:20.623Z,21.64
2018-12-04T06:36:20.644Z,21.64
2018-12-04T06:37:20.587Z,21.64
2018-12-04T06:38:20.618Z,21.69
2018-12-04T06:39:20.692Z,21.69
2018-12-04T06:40:20.551Z,21.72
2018-12-04T06:41:20.562Z,21.73
2018-12-04T06:42:20.527Z,21.75
2018-12-04T06:43:20.522Z,21.76
2018-12-04T06:44:20.513Z,21.76
2018-12-04T06:45:20.521Z,21.79
2018-12-04T06:46:20.493Z,21.80
2018-12-04T06:47:20.474Z,21.75
2018-12-04T06:48:20.511Z,21.79
2018-12-04T06:49:20.476Z,21.83
2018-12-04T06:50:20.459Z,21.89
2018-12-04T06:51:20.426Z,21.83
2018-12-04T06:52:20.436Z,21.79
2018-12-04T06:53:20.409Z,21.82
2018-12-04T06:54:20.413Z,21.72
2018-12-04T06:55:20.385Z,21.79
2018-12-04T06:56:20.389Z,21.75
2018-12-04T06:57:20.377Z,21.77
2018-12-04T06:58:20.409Z,21.75
2018-12-04T06:59:20.355Z,21.77
2018-12-04T07:00:20.332Z,21.77
2018-12-04T07:01:20.334Z,21.70
2018-12-04T07:02:20.306Z,21.69
2018-12-04T07:03:21.479Z,21.60
2018-12-04T07:04:20.338Z,21.61
2018-12-04T07:05:20.315Z,21.60
2018-12-04T07:06:20.275Z,21.66
2018-12-04T07:07:20.313Z,21.62
2018-12-04T07:08:20.241Z,21.66
2018-12-04T07:09:20.227Z,21.67
2018-12-04T07:10:20.481Z,21.75
2018-12-04T07:11:20.273Z,21.76
2018-12-04T07:12:20.191Z,21.80
2018-12-04T07:13:20.185Z,21.83
2018-12-04T07:14:20.321Z,21.93
2018-12-04T07:15:20.182Z,21.83
2018-12-04T07:16:20.154Z,21.85
2018-12-04T07:17:20.174Z,21.93
2018-12-04T07:18:20.124Z,21.93
2018-12-04T07:19:20.132Z,22.04
2018-12-04T07:20:20.153Z,21.98
2018-12-04T07:21:20.096Z,22.07
2018-12-04T07:22:20.079Z,22.06
2018-12-04T07:23:20.106Z,21.98
2018-12-04T07:24:20.073Z,21.96
2018-12-04T07:25:20.071Z,22.00
2018-12-04T07:26:20.117Z,22.07
2018-12-04T07:27:20.046Z,22.13
2018-12-04T07:28:20.076Z,22.06
2018-12-04T07:29:20.024Z,22.08
2018-12-04T07:30:20.007Z,22.13
2018-12-04T07:31:19.977Z,22.07
2018-12-04T07:32:20.016Z,22.11
2018-12-04T07:33:19.968Z,22.06
2018-12-04T07:34:20.008Z,22.11
2018-12-04T07:35:19.943Z,22.13
2018-12-04T07:36:19.920Z,22.06
2018-12-04T07:37:19.917Z,22.15
2018-12-04T07:38:19.933Z,22.18
2018-12-04T07:39:19.922Z,22.22
2018-12-04T07:40:19.899Z,22.22
2018-12-04T07:41:19.911Z,22.15
2018-12-04T07:42:19.903Z,22.22
2018-12-04T07:43:19.937Z,22.22
2018-12-04T07:44:19.907Z,22.15
2018-12-04T07:45:19.884Z,22.25
2018-12-04T07:46:19.815Z,22.14
2018-12-04T07:47:19.958Z,22.26
2018-12-04T07:48:19.806Z,22.25
2018-12-04T07:49:19.788Z,22.30
2018-12-04T07:50:19.827Z,22.28
2018-12-04T07:51:19.808Z,22.36
2018-12-04T07:52:19.759Z,22.35
2018-12-04T07:53:20.297Z,22.29
2018-12-04T07:54:19.733Z,22.33
2018-12-04T07:55:19.746Z,22.30
2018-12-04T07:56:19.719Z,22.30
2018-12-04T07:57:19.702Z,22.26
2018-12-04T07:58:19.707Z,22.29
2018-12-04T07:59:19.670Z,22.28
2018-12-04T08:00:19.748Z,22.26
2018-12-04T08:01:19.646Z,22.25
2018-12-04T08:02:19.641Z,22.35
2018-12-04T08:03:19.634Z,22.29
2018-12-04T08:04:19.721Z,22.29
2018-12-04T08:05:19.628Z,22.32
2018-12-04T08:06:19.636Z,22.26
2018-12-04T08:07:19.580Z,22.30
2018-12-04T08:08:19.696Z,22.28
2018-12-04T08:09:19.609Z,22.17
2018-12-04T08:10:19.560Z,22.25
2018-12-04T08:11:19.731Z,22.22
2018-12-04T08:12:19.592Z,22.30
2018-12-04T08:13:19.559Z,22.32
2018-12-04T08:14:19.562Z,22.30
2018-12-04T08:15:19.518Z,22.32
2018-12-04T08:16:19.511Z,22.33
2018-12-04T08:17:19.475Z,22.38
2018-12-04T08:18:19.453Z,22.38
2018-12-04T08:19:19.445Z,22.39
2018-12-04T08:20:19.504Z,22.43
2018-12-04T08:21:19.425Z,22.47
2018-12-04T08:22:19.426Z,22.44
2018-12-04T08:23:19.461Z,22.35
2018-12-04T08:24:19.402Z,22.39
2018-12-04T08:25:19.371Z,22.36
2018-12-04T08:26:19.396Z,22.43
2018-12-04T08:27:19.361Z,22.39
2018-12-04T08:28:19.409Z,22.43
2018-12-04T08:29:19.331Z,22.35
2018-12-04T08:30:19.366Z,22.28
2018-12-04T08:31:19.330Z,22.29
2018-12-04T08:32:19.299Z,22.25
2018-12-04T08:33:19.321Z,22.29
2018-12-04T08:34:19.340Z,22.26
2018-12-04T08:35:19.278Z,22.28
2018-12-04T08:36:19.267Z,22.28
2018-12-04T08:37:19.252Z,22.25
2018-12-04T08:38:19.230Z,22.32
2018-12-04T08:39:19.252Z,22.33
2018-12-04T08:40:19.220Z,22.25
2018-12-04T08:41:19.192Z,22.20
2018-12-04T08:42:19.197Z,22.30
2018-12-04T08:43:19.175Z,22.20
2018-12-04T08:44:19.193Z,22.28
2018-12-04T08:45:19.326Z,22.28
2018-12-04T08:46:19.152Z,22.23
2018-12-04T08:47:19.138Z,22.25
2018-12-04T08:48:19.115Z,22.26
2018-12-04T08:49:19.139Z,22.30
2018-12-04T08:50:19.178Z,22.25
2018-12-04T08:51:19.235Z,22.28
2018-12-04T08:52:19.083Z,22.30
2018-12-04T08:53:19.132Z,22.28
2018-12-04T08:54:19.078Z,22.13
2018-12-04T08:55:19.121Z,22.15
2018-12-04T08:56:19.107Z,22.18
2018-12-04T08:57:19.030Z,22.18
2018-12-04T08:58:19.082Z,22.20
2018-12-04T08:59:19.008Z,22.11
2018-12-04T09:00:18.991Z,22.11
2018-12-04T09:01:18.991Z,22.13
2018-12-04T09:02:19.165Z,22.25
2018-12-04T09:03:19.043Z,22.30
2018-12-04T09:04:18.977Z,22.32
2018-12-04T09:05:19.009Z,22.30
2018-12-04T09:06:18.992Z,22.28
2018-12-04T09:07:18.925Z,22.25
2018-12-04T09:08:18.922Z,22.32
2018-12-04T09:09:18.961Z,22.29
2018-12-04T09:10:18.895Z,22.33
2018-12-04T09:11:18.869Z,22.35
2018-12-04T09:12:18.864Z,22.25
2018-12-04T09:13:18.896Z,22.32
2018-12-04T09:14:18.826Z,22.20
2018-12-04T09:15:18.819Z,22.29
2018-12-04T09:16:23.350Z,22.32
2018-12-04T09:17:18.801Z,22.33
2018-12-04T09:18:18.829Z,22.30
2018-12-04T09:19:18.820Z,22.30
2018-12-04T09:20:18.818Z,22.26
2018-12-04T09:21:18.777Z,22.29
2018-12-04T09:22:18.790Z,22.29
2018-12-04T09:23:18.734Z,22.29
2018-12-04T09:24:18.752Z,22.23
2018-12-04T09:25:18.706Z,22.33
2018-12-04T09:26:18.766Z,22.29
2018-12-04T09:27:18.746Z,22.29
2018-12-04T09:28:18.695Z,22.30
2018-12-04T09:29:18.706Z,22.33
2018-12-04T09:30:18.647Z,22.29
2018-12-04T09:31:18.644Z,22.32
2018-12-04T09:32:18.632Z,22.26
2018-12-04T09:33:18.615Z,22.25
2018-12-04T09:34:18.635Z,22.23
2018-12-04T09:35:18.663Z,22.25
2018-12-04T09:36:18.591Z,22.26
2018-12-04T09:37:18.610Z,22.11
2018-12-04T09:38:18.559Z,22.23
2018-12-04T09:39:18.578Z,22.14
2018-12-04T09:40:19.694Z,22.25
2018-12-04T09:41:18.604Z,22.32
2018-12-04T09:42:18.510Z,22.25
2018-12-04T09:43:18.549Z,22.28
2018-12-04T09:44:18.516Z,22.23
2018-12-04T09:45:18.494Z,22.17
2018-12-04T09:46:18.534Z,22.25
2018-12-04T09:47:18.509Z,22.30
2018-12-04T09:48:18.469Z,22.25
2018-12-04T09:49:18.450Z,22.32
2018-12-04T09:50:18.436Z,22.30
2018-12-04T09:51:18.437Z,22.30
2018-12-04T09:52:18.673Z,22.25
2018-12-04T09:53:18.438Z,22.14
2018-12-04T09:54:18.397Z,22.15
2018-12-04T09:55:18.399Z,22.18
2018-12-04T09:56:18.594Z,22.18
2018-12-04T09:57:18.395Z,22.14
2018-12-04T09:58:18.347Z,22.22
2018-12-04T09:59:18.380Z,22.11
2018-12-04T10:00:18.407Z,22.28
2018-12-04T10:01:18.302Z,22.23
2018-12-04T10:02:18.337Z,22.26
2018-12-04T10:03:18.289Z,22.32
2018-12-04T10:04:18.358Z,22.29
2018-12-04T10:05:18.298Z,22.29
2018-12-04T10:06:18.286Z,22.25
2018-12-04T10:07:18.397Z,22.35
2018-12-04T10:08:18.231Z,22.25
2018-12-04T10:09:18.225Z,22.30
2018-12-04T10:10:18.197Z,22.32
2018-12-04T10:11:18.215Z,22.35
2018-12-04T10:12:18.181Z,22.32
2018-12-04T10:13:18.507Z,22.38
2018-12-04T10:14:19.228Z,22.38
2018-12-04T10:15:18.154Z,22.38
2018-12-04T10:16:18.172Z,22.35
2018-12-04T10:17:18.189Z,22.43
2018-12-04T10:18:18.117Z,21.54
2018-12-04T10:19:18.107Z,20.10
2018-12-04T10:20:18.124Z,19.00
2018-12-04T10:21:18.086Z,18.10
2018-12-04T10:22:18.161Z,17.68
2018-12-04T10:23:18.080Z,17.23
2018-12-04T10:24:18.050Z,16.83
2018-12-04T10:25:18.111Z,16.46
2018-12-04T10:26:18.059Z,16.46
2018-12-04T10:27:18.026Z,16.16
2018-12-04T10:28:18.343Z,16.26
2018-12-04T10:29:17.988Z,16.05
2018-12-04T10:30:18.272Z,16.02
2018-12-04T10:31:18.011Z,16.04
2018-12-04T10:32:17.987Z,15.98
2018-12-04T10:33:17.944Z,15.94
2018-12-04T10:34:18.079Z,15.82
2018-12-04T10:35:17.913Z,15.62
2018-12-04T10:36:17.913Z,15.75
2018-12-04T10:37:17.919Z,15.91
2018-12-04T10:38:17.936Z,15.98
2018-12-04T10:39:17.934Z,15.95
2018-12-04T10:40:17.857Z,15.83
2018-12-04T10:41:17.855Z,15.72
2018-12-04T10:42:17.841Z,15.80
2018-12-04T10:43:17.826Z,15.76
2018-12-04T10:44:17.854Z,15.88
2018-12-04T10:45:17.812Z,15.92
2018-12-04T10:46:17.801Z,15.95
2018-12-04T10:47:17.811Z,15.97
2018-12-04T10:48:17.785Z,16.05
2018-12-04T10:49:17.866Z,15.97
2018-12-04T10:50:17.755Z,15.86
2018-12-04T10:51:17.743Z,15.97
2018-12-04T10:52:17.721Z,15.90
2018-12-04T10:53:17.757Z,15.92
2018-12-04T10:54:17.783Z,15.72
2018-12-04T10:55:17.693Z,15.72
2018-12-04T10:56:17.719Z,15.47
2018-12-04T10:57:17.713Z,15.44
2018-12-04T10:58:17.660Z,15.35
2018-12-04T10:59:17.641Z,15.44
2018-12-04T11:00:17.636Z,15.42
2018-12-04T11:01:17.629Z,15.46
2018-12-04T11:02:17.684Z,15.42
2018-12-04T11:03:17.614Z,15.40
2018-12-04T11:04:22.611Z,15.28
2018-12-04T11:05:17.587Z,15.25
2018-12-04T11:06:17.581Z,15.47
2018-12-04T11:07:17.557Z,15.52
2018-12-04T11:08:17.563Z,15.61
2018-12-04T11:09:17.540Z,15.52
2018-12-04T11:10:17.519Z,15.68
2018-12-04T11:11:17.515Z,15.59
2018-12-04T11:12:17.509Z,15.72
2018-12-04T11:13:17.512Z,15.88
2018-12-04T11:14:17.564Z,15.82
2018-12-04T11:15:17.474Z,15.73
2018-12-04T11:16:17.485Z,15.52
2018-12-04T11:17:17.451Z,15.51
2018-12-04T11:18:17.441Z,15.43
2018-12-04T11:19:17.462Z,15.52
2018-12-04T11:20:17.440Z,15.88
2018-12-04T11:21:17.424Z,16.21
2018-12-04T11:22:17.395Z,16.47
2018-12-04T11:23:17.441Z,16.81
2018-12-04T11:24:17.374Z,16.86
2018-12-04T11:25:17.349Z,16.81
2018-12-04T11:26:17.372Z,16.99
2018-12-04T11:27:17.330Z,17.09
2018-12-04T11:28:17.328Z,16.78
2018-12-04T11:29:17.304Z,16.57
2018-12-04T11:30:17.297Z,16.32
2018-12-04T11:31:17.279Z,15.92
2018-12-04T11:32:17.275Z,15.75
2018-12-04T11:33:17.259Z,15.57
2018-12-04T11:34:17.294Z,15.37
2018-12-04T11:35:17.289Z,15.27
2018-12-04T11:36:17.241Z,15.18
2018-12-04T11:37:17.222Z,15.17
2018-12-04T11:38:17.206Z,15.29
2018-12-04T11:39:17.190Z,15.40
2018-12-04T11:40:17.184Z,15.55
2018-12-04T11:41:17.242Z,15.77
2018-12-04T11:42:17.531Z,15.95
2018-12-04T11:43:17.142Z,15.97
2018-12-04T11:44:17.134Z,16.05
2018-12-04T11:45:17.120Z,15.98
2018-12-04T11:46:17.115Z,16.21
2018-12-04T11:47:17.108Z,16.23
2018-12-04T11:48:17.148Z,16.20
2018-12-04T11:49:17.073Z,16.21
2018-12-04T11:50:17.064Z,16.04
2018-12-04T11:51:17.051Z,15.97
2018-12-04T11:52:17.046Z,15.97
2018-12-04T11:53:17.032Z,16.01
2018-12-04T11:54:17.068Z,15.84
2018-12-04T11:55:17.011Z,15.82
2018-12-04T11:56:17.008Z,15.68
2018-12-04T11:57:17.011Z,15.62
2018-12-04T11:58:16.977Z,15.55
2018-12-04T11:59:16.975Z,15.59
2018-12-04T12:00:16.967Z,15.75
2018-12-04T12:01:16.942Z,15.80
2018-12-04T12:02:16.927Z,15.79
2018-12-04T12:03:17.004Z,15.73
2018-12-04T12:04:16.923Z,15.52
2018-12-04T12:05:16.942Z,15.39
2018-12-04T12:06:16.882Z,15.40
2018-12-04T12:07:20.533Z,15.55
2018-12-04T12:08:16.860Z,15.59
2018-12-04T12:09:16.853Z,15.58
2018-12-04T12:10:16.945Z,15.68
2018-12-04T12:11:16.914Z,15.67
2018-12-04T12:12:16.825Z,15.75
2018-12-04T12:13:16.899Z,15.67
2018-12-04T12:14:16.790Z,15.67
2018-12-04T12:15:18.338Z,15.70
2018-12-04T12:16:16.769Z,15.62
2018-12-04T12:17:16.856Z,15.65
2018-12-04T12:18:16.798Z,15.70
2018-12-04T12:19:16.739Z,15.75
2018-12-04T12:20:16.733Z,15.86
2018-12-04T12:21:16.726Z,15.97
2018-12-04T12:22:16.740Z,15.90
2018-12-04T12:23:16.757Z,16.20
2018-12-04T12:24:16.722Z,16.41
2018-12-04T12:25:16.674Z,16.76
2018-12-04T12:26:16.662Z,16.90
2018-12-04T12:27:16.705Z,17.20
2018-12-04T12:28:16.647Z,17.31
2018-12-04T12:29:16.631Z,17.48
2018-12-04T12:30:16.626Z,17.57
2018-12-04T12:31:16.626Z,17.31
2018-12-04T12:32:16.697Z,17.29
2018-12-04T12:33:16.580Z,17.26
2018-12-04T12:34:16.669Z,17.36
2018-12-04T12:35:16.554Z,17.44
2018-12-04T12:36:16.544Z,17.49
2018-12-04T12:37:16.540Z,17.63
2018-12-04T12:38:16.545Z,17.74
2018-12-04T12:39:16.514Z,18.11
2018-12-04T12:40:16.496Z,18.25
2018-12-04T12:41:16.490Z,18.29
2018-12-04T12:42:16.496Z,18.08
2018-12-04T12:43:16.462Z,17.68
2018-12-04T12:44:16.468Z,17.30
2018-12-04T12:45:16.448Z,17.02
2018-12-04T12:46:16.450Z,16.87
2018-12-04T12:47:16.483Z,16.86
2018-12-04T12:48:16.422Z,16.69
2018-12-04T12:49:16.425Z,16.76
2018-12-04T12:50:16.386Z,16.65
2018-12-04T12:51:16.395Z,16.54
2018-12-04T12:52:16.374Z,16.58